createdAt,value
2018-06-30T00:01:18.805Z,91185.00
2018-06-30T00:03:52.723Z,91177.15
2018-06-30T00:06:27.448Z,91180.69
2018-06-30T00:09:01.496Z,91175.97
2018-06-30T00:11:35.578Z,91176.02
2018-06-30T00:14:09.434Z,91171.91
2018-06-30T00:16:43.477Z,91167.93
2018-06-30T00:19:17.324Z,91167.84
2018-06-30T00:21:51.220Z,91169.81
2018-06-30T00:24:25.078Z,91163.91
2018-06-30T00:27:04.520Z,91162.42
2018-06-30T00:29:38.627Z,91155.40
2018-06-30T00:32:12.409Z,91159.20
2018-06-30T00:34:46.344Z,91155.75
2018-06-30T00:37:20.278Z,91157.89
2018-06-30T00:39:54.262Z,91163.05
2018-06-30T00:42:28.244Z,91156.09
2018-06-30T00:45:02.228Z,91162.94
2018-06-30T00:47:36.150Z,91153.05
2018-06-30T00:50:09.979Z,91155.09
2018-06-30T00:52:43.869Z,91150.06
2018-06-30T00:55:17.912Z,91142.35
2018-06-30T00:57:51.913Z,91136.50
2018-06-30T01:00:25.791Z,91139.95
2018-06-30T01:03:00.132Z,91131.39
2018-06-30T01:05:34.125Z,91132.09
2018-06-30T01:08:08.085Z,91129.86
2018-06-30T01:10:42.058Z,91128.21
2018-06-30T01:13:16.045Z,91126.03
2018-06-30T01:15:50.036Z,91125.77
2018-06-30T01:18:24.023Z,91125.77
2018-06-30T01:20:57.990Z,91135.72
2018-06-30T01:23:31.883Z,91126.50
2018-06-30T01:26:06.826Z,91134.63
2018-06-30T01:28:40.855Z,91132.05
2018-06-30T01:31:14.859Z,91126.41
2018-06-30T01:33:48.847Z,91123.19
2018-06-30T01:36:22.706Z,91125.05
2018-06-30T01:38:56.765Z,91131.17
2018-06-30T01:41:30.624Z,91127.34
2018-06-30T01:44:04.729Z,91127.77
2018-06-30T01:46:38.664Z,91122.05
2018-06-30T01:49:12.610Z,91124.80
2018-06-30T01:51:46.621Z,91126.11
2018-06-30T01:54:20.631Z,91130.30
2018-06-30T01:56:54.705Z,91125.80
2018-06-30T01:59:28.476Z,91131.07
2018-06-30T02:02:02.413Z,91136.28
2018-06-30T02:04:36.607Z,91138.53
2018-06-30T02:07:10.668Z,91149.12
2018-06-30T02:09:44.608Z,91146.72
2018-06-30T02:12:18.746Z,91146.05
2018-06-30T02:14:52.487Z,91153.70
2018-06-30T02:17:26.537Z,91147.11
2018-06-30T02:20:00.513Z,91147.16
2018-06-30T02:22:34.260Z,91144.44
2018-06-30T02:25:08.219Z,91140.30
2018-06-30T02:27:42.671Z,91138.94
2018-06-30T02:30:16.646Z,91133.57
2018-06-30T02:32:50.895Z,91134.92
2018-06-30T02:35:24.821Z,91140.34
2018-06-30T02:37:58.773Z,91134.31
2018-06-30T02:40:32.641Z,91134.92
2018-06-30T02:43:06.653Z,91132.39
2018-06-30T02:45:40.618Z,91131.73
2018-06-30T02:48:14.676Z,91123.00
2018-06-30T02:50:48.695Z,91126.89
2018-06-30T02:53:22.764Z,91136.83
2018-06-30T02:55:56.977Z,91129.49
2018-06-30T02:58:31.009Z,91131.73
2018-06-30T03:01:04.973Z,91135.05
2018-06-30T03:03:38.878Z,91137.36
2018-06-30T03:06:13.313Z,91141.78
2018-06-30T03:08:47.183Z,91142.61
2018-06-30T03:11:20.947Z,91133.83
2018-06-30T03:13:55.096Z,91133.74
2018-06-30T03:16:29.078Z,91136.49
2018-06-30T03:19:03.035Z,91135.09
2018-06-30T03:21:36.927Z,91136.92
2018-06-30T03:24:10.953Z,91137.66
2018-06-30T03:26:44.779Z,91140.13
2018-06-30T03:29:18.653Z,91148.23
2018-06-30T03:31:52.564Z,91145.48
2018-06-30T03:34:26.593Z,91131.59
2018-06-30T03:37:00.470Z,91146.31
2018-06-30T03:39:34.468Z,91133.70
2018-06-30T03:42:08.418Z,91133.61
2018-06-30T03:44:42.417Z,91132.16
2018-06-30T03:47:16.356Z,91134.19
2018-06-30T03:49:50.365Z,91135.26
2018-06-30T03:52:24.323Z,91127.06
2018-06-30T03:54:58.150Z,91126.61
2018-06-30T03:57:32.259Z,91133.67
2018-06-30T04:00:07.000Z,91134.69
2018-06-30T04:02:40.916Z,91140.64
2018-06-30T04:05:14.970Z,91150.45
2018-06-30T04:07:48.913Z,91143.95
2018-06-30T04:10:22.848Z,91143.70
2018-06-30T04:12:56.861Z,91145.94
2018-06-30T04:15:30.882Z,91149.70
2018-06-30T04:18:04.782Z,91150.55
2018-06-30T04:20:38.909Z,91160.58
2018-06-30T04:23:12.834Z,91156.23
2018-06-30T04:25:46.718Z,91144.00
2018-06-30T04:28:20.482Z,91143.50
2018-06-30T04:30:55.105Z,91150.75
2018-06-30T04:33:28.973Z,91145.17
2018-06-30T04:36:03.042Z,91144.58
2018-06-30T04:38:36.914Z,91144.66
2018-06-30T04:41:11.053Z,91143.56
2018-06-30T04:43:44.863Z,91146.77
2018-06-30T04:46:24.252Z,91144.14
2018-06-30T04:48:58.008Z,91145.37
2018-06-30T04:51:32.012Z,91150.05
2018-06-30T04:54:06.239Z,91154.48
2018-06-30T04:56:40.274Z,91144.20
2018-06-30T04:59:14.145Z,91151.78
2018-06-30T05:01:48.199Z,91154.03
2018-06-30T05:04:22.085Z,91144.23
2018-06-30T05:06:55.907Z,91149.27
2018-06-30T05:09:29.989Z,91144.83
2018-06-30T05:12:04.022Z,91144.02
2018-06-30T05:14:37.879Z,91153.64
2018-06-30T05:18:36.405Z,91152.94
2018-06-30T05:21:10.247Z,91163.60
2018-06-30T05:23:44.212Z,91157.75
2018-06-30T05:26:18.145Z,91163.45
2018-06-30T05:28:52.153Z,91171.20
2018-06-30T05:31:26.050Z,91161.38
2018-06-30T05:34:00.102Z,91159.52
2018-06-30T05:36:34.060Z,91158.66
2018-06-30T05:39:08.264Z,91149.39
2018-06-30T05:41:42.100Z,91145.91
2018-06-30T05:44:16.150Z,91145.32
2018-06-30T05:46:50.020Z,91144.16
2018-06-30T05:49:24.896Z,91142.05
2018-06-30T05:51:59.344Z,91139.88
2018-06-30T05:54:33.200Z,91142.80
2018-06-30T05:57:07.656Z,91140.48
2018-06-30T05:59:41.875Z,91142.80
2018-06-30T06:02:16.028Z,91152.13
2018-06-30T06:04:50.275Z,91155.16
2018-06-30T06:07:24.173Z,91153.38
2018-06-30T06:09:58.531Z,91144.55
2018-06-30T06:12:32.629Z,91149.95
2018-06-30T06:15:06.639Z,91152.83
2018-06-30T06:17:40.728Z,91148.80
2018-06-30T06:20:15.607Z,91154.19
2018-06-30T06:22:49.782Z,91140.56
2018-06-30T06:25:24.027Z,91139.95
2018-06-30T06:27:58.095Z,91144.77
2018-06-30T06:30:32.219Z,91136.06
2018-06-30T06:33:06.815Z,91136.55
2018-06-30T06:35:40.992Z,91143.15
2018-06-30T06:38:15.186Z,91138.71
2018-06-30T06:40:49.262Z,91149.93
2018-06-30T06:43:23.494Z,91161.70
2018-06-30T06:45:57.734Z,91163.59
2018-06-30T06:48:31.722Z,91171.63
2018-06-30T06:51:06.039Z,91164.81
2018-06-30T06:53:39.991Z,91172.09
2018-06-30T06:56:14.173Z,91159.92
2018-06-30T06:58:48.175Z,91175.97
2018-06-30T07:01:22.250Z,91171.25
2018-06-30T07:03:56.439Z,91166.47
2018-06-30T07:06:30.670Z,91162.77
2018-06-30T07:09:07.258Z,91163.91
2018-06-30T07:11:41.390Z,91157.08
2018-06-30T07:14:15.406Z,91154.97
2018-06-30T07:16:49.610Z,91160.07
2018-06-30T07:19:23.714Z,91153.95
2018-06-30T07:21:57.815Z,91148.98
2018-06-30T07:24:31.808Z,91153.09
2018-06-30T07:27:06.253Z,91157.98
2018-06-30T07:29:40.267Z,91172.21
2018-06-30T07:32:14.446Z,91165.17
2018-06-30T07:34:48.566Z,91163.28
2018-06-30T07:37:22.841Z,91172.67
2018-06-30T07:39:56.847Z,91171.80
2018-06-30T07:42:30.819Z,91171.55
2018-06-30T07:45:05.002Z,91172.20
2018-06-30T07:47:38.963Z,91171.59
2018-06-30T07:50:13.064Z,91185.45
2018-06-30T07:52:47.063Z,91180.00
2018-06-30T07:55:20.996Z,91172.94
2018-06-30T07:57:55.096Z,91178.72
2018-06-30T08:00:30.131Z,91170.70
2018-06-30T08:03:04.480Z,91174.69
2018-06-30T08:05:38.578Z,91166.84
2018-06-30T08:08:12.988Z,91174.36
2018-06-30T08:10:47.414Z,91166.13
2018-06-30T08:13:21.637Z,91168.90
2018-06-30T08:15:55.680Z,91175.87
2018-06-30T08:18:29.821Z,91167.67
2018-06-30T08:21:03.956Z,91166.23
2018-06-30T08:23:38.266Z,91173.41
2018-06-30T08:26:12.275Z,91168.05
2018-06-30T08:28:46.470Z,91177.81
2018-06-30T08:31:20.628Z,91177.83
2018-06-30T08:33:54.705Z,91182.50
2018-06-30T08:36:28.696Z,91192.53
2018-06-30T08:39:03.162Z,91197.28
2018-06-30T08:41:37.023Z,91193.56
2018-06-30T08:44:11.051Z,91197.70
2018-06-30T08:46:46.051Z,91196.98
2018-06-30T08:49:20.172Z,91197.37
2018-06-30T08:51:54.241Z,91184.44
2018-06-30T08:54:28.370Z,91186.50
2018-06-30T08:57:02.542Z,91191.86
2018-06-30T08:59:40.475Z,91186.41
2018-06-30T09:02:14.969Z,91195.48
2018-06-30T09:04:49.074Z,91197.67
2018-06-30T09:07:23.119Z,91202.19
2018-06-30T09:09:57.179Z,91208.54
2018-06-30T09:12:31.697Z,91204.23
2018-06-30T09:15:06.400Z,91210.14
2018-06-30T09:17:40.518Z,91216.22
2018-06-30T09:20:14.626Z,91214.09
2018-06-30T09:22:48.594Z,91210.05
2018-06-30T09:25:23.206Z,91209.94
2018-06-30T09:27:57.385Z,91208.13
2018-06-30T09:30:31.451Z,91206.56
2018-06-30T09:33:05.583Z,91227.33
2018-06-30T09:35:39.646Z,91223.00
2018-06-30T09:38:14.370Z,91225.73
2018-06-30T09:40:49.325Z,91205.19
2018-06-30T09:43:23.342Z,91216.84
2018-06-30T09:45:57.359Z,91219.73
2018-06-30T09:48:31.486Z,91217.20
2018-06-30T09:51:05.672Z,91213.19
2018-06-30T09:53:39.792Z,91219.59
2018-06-30T09:56:13.980Z,91224.77
2018-06-30T09:58:48.114Z,91223.08
2018-06-30T10:01:22.127Z,91211.82
2018-06-30T10:03:55.955Z,91219.92
2018-06-30T10:06:30.052Z,91227.48
2018-06-30T10:09:07.382Z,91220.56
2018-06-30T10:11:41.827Z,91225.73
2018-06-30T10:14:16.033Z,91220.71
2018-06-30T10:16:51.080Z,91215.23
2018-06-30T10:19:25.134Z,91221.59
2018-06-30T10:21:59.290Z,91231.12
2018-06-30T10:24:33.226Z,91224.11
2018-06-30T10:27:07.494Z,91221.48
2018-06-30T10:29:41.593Z,91216.76
2018-06-30T10:32:16.146Z,91223.64
2018-06-30T10:34:50.182Z,91227.79
2018-06-30T10:37:24.892Z,91226.91
2018-06-30T10:39:58.908Z,91211.69
2018-06-30T10:42:33.501Z,91230.59
2018-06-30T10:45:07.567Z,91230.08
2018-06-30T10:47:41.580Z,91241.84
2018-06-30T10:50:15.581Z,91255.28
2018-06-30T10:52:49.606Z,91243.92
2018-06-30T10:55:23.714Z,91243.16
2018-06-30T10:57:58.791Z,91242.67
2018-06-30T11:00:33.224Z,91237.91
2018-06-30T11:03:07.242Z,91241.70
2018-06-30T11:05:41.290Z,91246.20
2018-06-30T11:08:15.444Z,91254.08
2018-06-30T11:10:49.604Z,91255.61
2018-06-30T11:13:23.655Z,91257.51
2018-06-30T11:15:57.706Z,91254.38
2018-06-30T11:18:31.964Z,91255.10
2018-06-30T11:21:05.933Z,91258.04
2018-06-30T11:23:39.945Z,91262.43
2018-06-30T11:26:14.108Z,91259.95
2018-06-30T11:28:48.218Z,91269.05
2018-06-30T11:31:22.149Z,91271.69
2018-06-30T11:33:56.192Z,91261.42
2018-06-30T11:36:30.194Z,91289.40
2018-06-30T11:39:07.714Z,91267.64
2018-06-30T11:41:42.531Z,91264.91
2018-06-30T11:44:16.632Z,91270.03
2018-06-30T11:46:50.779Z,91266.23
2018-06-30T11:49:18.837Z,91265.70
2018-06-30T11:51:46.771Z,91271.43
2018-06-30T11:54:14.745Z,91272.07
2018-06-30T11:56:42.805Z,91277.66
2018-06-30T11:59:10.739Z,91278.77
2018-06-30T12:01:38.643Z,91274.56
2018-06-30T12:04:06.779Z,91280.25
2018-06-30T12:06:34.808Z,91274.67
2018-06-30T12:09:03.423Z,91284.64
2018-06-30T12:11:31.406Z,91283.97
2018-06-30T12:13:59.350Z,91289.70
2018-06-30T12:16:27.525Z,91290.28
2018-06-30T12:18:55.814Z,91283.23
2018-06-30T12:21:23.885Z,91290.96
2018-06-30T12:23:51.903Z,91285.88
2018-06-30T12:26:19.954Z,91283.59
2018-06-30T12:28:47.920Z,91279.56
2018-06-30T12:31:15.967Z,91271.20
2018-06-30T12:33:44.049Z,91278.06
2018-06-30T12:36:12.080Z,91279.38
2018-06-30T12:38:40.099Z,91281.66
2018-06-30T12:41:08.064Z,91267.89
2018-06-30T12:43:36.058Z,91275.44
2018-06-30T12:48:31.479Z,91266.59
2018-06-30T12:50:59.439Z,91280.14
2018-06-30T12:53:27.364Z,91275.88
2018-06-30T12:55:55.337Z,91277.78
2018-06-30T12:58:23.348Z,91280.91
2018-06-30T13:00:51.247Z,91272.11
2018-06-30T13:03:19.383Z,91274.02
2018-06-30T13:05:47.875Z,91269.80
2018-06-30T13:08:15.912Z,91268.91
2018-06-30T13:10:43.949Z,91272.20
2018-06-30T13:13:12.007Z,91262.70
2018-06-30T13:15:39.989Z,91266.01
2018-06-30T13:18:08.160Z,91272.19
2018-06-30T13:20:36.406Z,91274.31
2018-06-30T13:23:04.524Z,91264.49
2018-06-30T13:25:32.604Z,91265.59
2018-06-30T13:28:00.595Z,91261.80
2018-06-30T13:30:28.791Z,91274.30
2018-06-30T13:32:57.502Z,91268.76
2018-06-30T13:35:25.634Z,91269.06
2018-06-30T13:37:53.578Z,91275.70
2018-06-30T13:40:21.549Z,91275.45
2018-06-30T13:42:49.490Z,91277.69
2018-06-30T13:45:17.505Z,91277.66
2018-06-30T13:47:45.642Z,91283.31
2018-06-30T13:50:13.681Z,91285.33
2018-06-30T13:52:41.787Z,91282.58
2018-06-30T13:55:10.712Z,91276.16
2018-06-30T13:57:38.703Z,91279.29
2018-06-30T14:00:07.225Z,91275.14
2018-06-30T14:02:35.195Z,91283.48
2018-06-30T14:05:03.227Z,91282.22
2018-06-30T14:07:31.228Z,91274.25
2018-06-30T14:09:59.403Z,91274.64
2018-06-30T14:12:28.366Z,91281.61
2018-06-30T14:14:56.320Z,91282.63
2018-06-30T14:17:24.379Z,91290.63
2018-06-30T14:19:52.426Z,91297.28
2018-06-30T14:22:20.551Z,91300.91
2018-06-30T14:24:48.595Z,91285.79
2018-06-30T14:27:16.642Z,91303.30
2018-06-30T14:29:44.647Z,91296.05
2018-06-30T14:32:12.656Z,91305.84
2018-06-30T14:34:40.639Z,91301.73
2018-06-30T14:37:08.719Z,91297.73
2018-06-30T14:39:36.782Z,91301.81
2018-06-30T14:42:04.775Z,91302.55
2018-06-30T14:44:32.783Z,91298.72
2018-06-30T14:47:00.902Z,91300.08
2018-06-30T14:49:28.932Z,91291.39
2018-06-30T14:51:56.909Z,91301.76
2018-06-30T14:54:24.959Z,91299.41
2018-06-30T14:56:53.037Z,91301.58
2018-06-30T14:59:21.719Z,91308.77
2018-06-30T15:01:49.904Z,91308.61
2018-06-30T15:04:17.934Z,91312.27
2018-06-30T15:06:45.943Z,91310.42
2018-06-30T15:09:15.010Z,91307.05
2018-06-30T15:11:44.079Z,91307.81
2018-06-30T15:14:12.855Z,91312.61
2018-06-30T15:16:40.898Z,91308.39
2018-06-30T15:19:09.427Z,91315.29
2018-06-30T15:21:37.436Z,91305.69
2018-06-30T15:24:06.244Z,91304.84
2018-06-30T15:26:39.659Z,91307.58
2018-06-30T15:29:07.661Z,91310.02
2018-06-30T15:31:35.736Z,91320.98
2018-06-30T15:34:03.783Z,91319.44
2018-06-30T15:36:31.809Z,91318.50
2018-06-30T15:38:59.759Z,91325.75
2018-06-30T15:41:27.722Z,91327.81
2018-06-30T15:43:55.885Z,91328.16
2018-06-30T15:46:23.878Z,91340.10
2018-06-30T15:48:51.867Z,91345.13
2018-06-30T15:51:19.964Z,91341.80
2018-06-30T15:53:47.927Z,91340.80
2018-06-30T15:56:15.953Z,91339.95
2018-06-30T15:58:43.984Z,91336.38
2018-06-30T16:01:12.548Z,91337.39
2018-06-30T16:03:40.513Z,91343.25
2018-06-30T16:06:08.616Z,91346.65
2018-06-30T16:08:36.828Z,91346.34
2018-06-30T16:11:04.848Z,91350.95
2018-06-30T16:13:35.955Z,91355.49
2018-06-30T16:16:03.987Z,91359.84
2018-06-30T16:18:32.007Z,91354.39
2018-06-30T16:21:00.110Z,91371.45
2018-06-30T16:23:28.219Z,91365.13
2018-06-30T16:25:57.387Z,91363.03
2018-06-30T16:28:25.480Z,91360.88
2018-06-30T16:30:53.490Z,91362.12
2018-06-30T16:33:21.578Z,91359.31
2018-06-30T16:35:49.893Z,91356.49
2018-06-30T16:38:18.050Z,91364.71
2018-06-30T16:40:46.172Z,91364.50
2018-06-30T16:43:14.131Z,91371.36
2018-06-30T16:45:42.114Z,91373.08
2018-06-30T16:48:10.091Z,91383.14
2018-06-30T16:50:38.144Z,91385.75
2018-06-30T16:53:06.277Z,91388.47
2018-06-30T16:55:34.939Z,91394.48
2018-06-30T16:58:02.922Z,91401.41
2018-06-30T17:00:30.934Z,91410.27
2018-06-30T17:02:59.779Z,91419.94
2018-06-30T17:05:41.906Z,91415.75
2018-06-30T17:08:12.470Z,91423.74
2018-06-30T17:10:40.674Z,91419.53
2018-06-30T17:13:08.632Z,91420.79
2018-06-30T17:15:37.640Z,91437.03
2018-06-30T17:18:06.168Z,91442.59
2018-06-30T17:20:36.208Z,91447.93
2018-06-30T17:23:05.307Z,91443.64
2018-06-30T17:25:33.739Z,91438.88
2018-06-30T17:28:03.566Z,91439.92
2018-06-30T17:30:32.488Z,91437.88
2018-06-30T17:33:00.708Z,91433.08
2018-06-30T17:35:29.583Z,91444.36
2018-06-30T17:37:57.888Z,91433.49
2018-06-30T17:40:26.548Z,91438.12
2018-06-30T17:42:57.799Z,91434.50
2018-06-30T17:45:26.063Z,91433.77
2018-06-30T17:47:55.220Z,91443.84
2018-06-30T17:50:25.424Z,91443.56
2018-06-30T17:52:54.373Z,91444.18
2018-06-30T17:55:23.170Z,91442.09
2018-06-30T17:57:51.348Z,91445.85
2018-06-30T18:00:19.797Z,91442.42
2018-06-30T18:02:50.102Z,91450.84
2018-06-30T18:05:18.392Z,91445.38
2018-06-30T18:07:46.409Z,91448.16
2018-06-30T18:10:15.151Z,91451.71
2018-06-30T18:12:43.332Z,91463.49
2018-06-30T18:15:11.430Z,91472.58
2018-06-30T18:17:39.676Z,91481.17
2018-06-30T18:20:07.927Z,91489.52
2018-06-30T18:22:35.907Z,91494.84
2018-06-30T18:25:04.085Z,91495.06
2018-06-30T18:27:35.659Z,91503.55
2018-06-30T18:30:06.630Z,91504.80
2018-06-30T18:32:35.518Z,91502.06
2018-06-30T18:35:04.595Z,91507.46
2018-06-30T18:37:32.627Z,91509.82
2018-06-30T18:40:00.587Z,91514.52
2018-06-30T18:42:28.698Z,91518.86
2018-06-30T18:44:57.104Z,91523.94
2018-06-30T18:47:26.304Z,91529.77
2018-06-30T18:49:54.983Z,91539.59
2018-06-30T18:52:26.670Z,91543.28
2018-06-30T18:54:55.280Z,91545.67
2018-06-30T18:57:23.352Z,91553.49
2018-06-30T18:59:51.523Z,91553.99
2018-06-30T19:02:19.703Z,91561.61
2018-06-30T19:04:47.792Z,91571.34
2018-06-30T19:07:15.905Z,91571.91
2018-06-30T19:09:44.346Z,91584.05
2018-06-30T19:12:12.416Z,91581.42
2018-06-30T19:14:41.748Z,91580.55
2018-06-30T19:17:10.968Z,91588.55
2018-06-30T19:19:39.267Z,91590.27
2018-06-30T19:22:09.212Z,91589.11
2018-06-30T19:24:37.988Z,91591.63
2018-06-30T19:27:06.555Z,91599.17
2018-06-30T19:29:35.184Z,91600.54
2018-06-30T19:32:04.452Z,91600.51
2018-06-30T19:34:33.641Z,91595.16
2018-06-30T19:37:02.382Z,91599.73
2018-06-30T19:39:30.711Z,91607.47
2018-06-30T19:41:59.077Z,91600.52
2018-06-30T19:44:27.205Z,91607.47
2018-06-30T19:46:55.467Z,91605.16
2018-06-30T19:49:23.635Z,91609.56
2018-06-30T19:51:51.716Z,91608.83
2018-06-30T19:54:19.884Z,91612.98
2018-06-30T19:56:47.942Z,91614.84
2018-06-30T19:59:22.717Z,91609.73
2018-06-30T20:01:57.109Z,91611.77
2018-06-30T20:04:33.692Z,91615.11
2018-06-30T20:07:08.038Z,91619.06
2018-06-30T20:09:43.233Z,91630.91
2018-06-30T20:12:17.365Z,91633.47
2018-06-30T20:14:51.672Z,91631.97
2018-06-30T20:17:26.057Z,91638.50
2018-06-30T20:20:03.560Z,91645.09
2018-06-30T20:22:38.584Z,91643.03
2018-06-30T20:25:14.701Z,91648.83
2018-06-30T20:27:56.517Z,91658.25
2018-06-30T20:30:31.308Z,91657.81
2018-06-30T20:33:09.095Z,91665.77
2018-06-30T20:35:44.533Z,91658.33
2018-06-30T20:38:18.911Z,91668.17
2018-06-30T20:40:53.131Z,91668.10
2018-06-30T20:43:27.679Z,91659.22
2018-06-30T20:46:02.763Z,91664.67
2018-06-30T20:48:37.139Z,91663.69
2018-06-30T20:51:11.255Z,91674.11
2018-06-30T20:53:45.152Z,91678.95
2018-06-30T20:56:19.296Z,91680.27
2018-06-30T20:58:53.515Z,91688.06
2018-06-30T21:01:27.880Z,91695.31
2018-06-30T21:04:02.105Z,91691.63
2018-06-30T21:06:36.311Z,91692.39
2018-06-30T21:09:11.306Z,91700.81
2018-06-30T21:11:45.440Z,91703.02
2018-06-30T21:14:19.494Z,91710.06
2018-06-30T21:16:54.910Z,91713.22
2018-06-30T21:19:28.951Z,91720.45
2018-06-30T21:22:03.319Z,91730.61
2018-06-30T21:24:37.980Z,91737.87
2018-06-30T21:27:12.513Z,91745.20
2018-06-30T21:29:46.514Z,91740.64
2018-06-30T21:32:24.273Z,91741.52
2018-06-30T21:34:58.157Z,91742.28
2018-06-30T21:37:32.064Z,91742.45
2018-06-30T21:40:05.911Z,91746.66
2018-06-30T21:42:40.874Z,91741.08
2018-06-30T21:45:14.784Z,91750.04
2018-06-30T21:47:48.844Z,91751.02
2018-06-30T21:50:22.656Z,91751.44
2018-06-30T21:52:58.065Z,91751.14
2018-06-30T21:55:32.707Z,91746.98
2018-06-30T21:58:08.739Z,91753.37
2018-06-30T22:00:50.385Z,91749.73
2018-06-30T22:04:50.733Z,91759.38
2018-06-30T22:07:27.774Z,91763.69
2018-06-30T22:10:05.254Z,91760.29
2018-06-30T22:12:39.244Z,91762.97
2018-06-30T22:15:13.349Z,91773.88
2018-06-30T22:17:47.256Z,91778.89
2018-06-30T22:20:21.230Z,91777.06
2018-06-30T22:22:55.185Z,91769.95
2018-06-30T22:25:29.163Z,91769.15
2018-06-30T22:28:03.842Z,91767.28
2018-06-30T22:30:37.838Z,91759.25
2018-06-30T22:33:11.791Z,91752.84
2018-06-30T22:35:46.052Z,91749.98
2018-06-30T22:38:19.960Z,91756.48
2018-06-30T22:40:53.908Z,91758.08
2018-06-30T22:43:27.825Z,91759.01
2018-06-30T22:46:01.833Z,91761.63
2018-06-30T22:48:35.756Z,91758.36
2018-06-30T22:51:09.877Z,91763.68
2018-06-30T22:53:43.747Z,91765.23
2018-06-30T22:56:17.621Z,91768.95
2018-06-30T22:58:51.643Z,91770.65
2018-06-30T23:01:25.605Z,91771.96
2018-06-30T23:03:59.368Z,91769.16
2018-06-30T23:06:33.467Z,91775.13
2018-06-30T23:09:08.924Z,91775.48
2018-06-30T23:11:48.598Z,91779.29
2018-06-30T23:14:22.677Z,91785.86
2018-06-30T23:16:56.768Z,91771.81
2018-06-30T23:19:30.763Z,91778.47
2018-06-30T23:22:04.704Z,91777.44
2018-06-30T23:24:40.502Z,91775.92
2018-06-30T23:27:14.309Z,91779.48
2018-06-30T23:29:48.229Z,91783.71
2018-06-30T23:32:22.191Z,91791.78
2018-06-30T23:34:56.130Z,91797.55
2018-06-30T23:37:30.192Z,91801.88
2018-06-30T23:40:04.351Z,91797.69
2018-06-30T23:42:38.266Z,91797.37
2018-06-30T23:45:12.463Z,91803.06
2018-06-30T23:47:46.467Z,91809.23
2018-06-30T23:50:20.895Z,91807.34
2018-06-30T23:52:54.893Z,91815.08
2018-06-30T23:55:29.025Z,91817.41
2018-06-30T23:58:02.948Z,91813.27
